createdAt,value
2018-07-21T06:33:25.165Z,1230
2018-07-21T06:34:24.932Z,1220
2018-07-21T06:35:24.468Z,1235
2018-07-21T06:36:27.124Z,1260
2018-07-21T06:37:24.966Z,1315
2018-07-21T06:38:24.319Z,1290
2018-07-21T06:39:25.010Z,1275
2018-07-21T06:40:24.643Z,1260
2018-07-21T06:41:25.801Z,1255
2018-07-21T06:42:24.964Z,1210
2018-07-21T06:43:28.733Z,1315
2018-07-21T06:44:25.624Z,1310
2018-07-21T06:45:24.541Z,1330
2018-07-21T06:46:24.759Z,1325
2018-07-21T06:47:24.947Z,1335
2018-07-21T06:48:25.489Z,1370
2018-07-21T06:49:25.291Z,1395
2018-07-21T06:50:25.538Z,1390
2018-07-21T06:51:25.525Z,1285
2018-07-21T06:52:26.256Z,1330
2018-07-21T06:53:26.433Z,1355
2018-07-21T06:54:27.645Z,1375
2018-07-21T06:55:26.688Z,360
2018-07-21T06:56:27.259Z,1325
2018-07-21T06:57:28.314Z,1310
2018-07-21T06:58:26.601Z,355
2018-07-21T06:59:27.174Z,1440
2018-07-21T07:00:44.111Z,1055
2018-07-21T07:01:43.853Z,1430
2018-07-21T07:02:43.775Z,1335
2018-07-21T07:03:43.970Z,390
2018-07-21T07:04:44.284Z,1475
2018-07-21T07:05:44.397Z,1505
2018-07-21T07:06:44.013Z,1255
2018-07-21T07:07:43.683Z,1435
2018-07-21T07:08:44.199Z,350
2018-07-21T07:09:44.292Z,340
2018-07-21T07:10:44.670Z,1170
2018-07-21T07:11:44.174Z,1200
2018-07-21T07:12:45.756Z,1370
2018-07-21T07:13:44.455Z,1375
2018-07-21T07:14:45.207Z,1355
2018-07-21T07:15:45.051Z,1520
2018-07-21T07:16:44.801Z,1510
2018-07-21T07:17:45.278Z,1510
2018-07-21T07:18:45.376Z,370
2018-07-21T07:19:45.656Z,1455
2018-07-21T07:20:44.839Z,1475
2018-07-21T07:21:45.657Z,390
2018-07-21T07:22:45.556Z,795
2018-07-21T07:23:45.638Z,1445
2018-07-21T07:24:45.858Z,610
2018-07-21T07:25:46.126Z,410
2018-07-21T07:26:46.179Z,385
2018-07-21T07:27:46.664Z,405
2018-07-21T07:28:47.548Z,1375
2018-07-21T07:29:47.712Z,385
2018-07-21T07:30:47.520Z,1500
2018-07-21T07:31:47.448Z,1515
2018-07-21T07:32:47.692Z,1570
2018-07-21T07:33:47.011Z,1635
2018-07-21T07:34:47.658Z,1540
2018-07-21T07:35:47.075Z,435
2018-07-21T07:36:48.032Z,1125
2018-07-21T07:37:47.452Z,1585
2018-07-21T07:38:48.739Z,1580
2018-07-21T07:39:48.164Z,1245
2018-07-21T07:40:48.508Z,425
2018-07-21T07:41:47.836Z,1590
2018-07-21T07:42:47.613Z,1680
2018-07-21T07:43:48.585Z,420
2018-07-21T07:44:48.528Z,425
2018-07-21T07:45:47.473Z,420
2018-07-21T07:46:48.350Z,520
2018-07-21T07:47:48.008Z,1655
2018-07-21T07:48:47.781Z,1625
2018-07-21T07:49:48.072Z,1675
2018-07-21T07:50:48.904Z,1730
2018-07-21T07:51:48.424Z,1745
2018-07-21T07:52:49.125Z,1810
2018-07-21T07:53:49.175Z,1810
2018-07-21T07:54:49.025Z,1800
2018-07-21T07:55:48.969Z,1800
2018-07-21T07:56:48.907Z,1585
2018-07-21T07:57:49.371Z,1750
2018-07-21T07:58:49.860Z,1695
2018-07-21T07:59:49.568Z,1625
2018-07-21T08:00:50.570Z,1750
2018-07-21T08:01:50.058Z,1705
2018-07-21T08:02:51.111Z,1795
2018-07-21T08:03:50.390Z,525
2018-07-21T08:04:49.854Z,1530
2018-07-21T08:05:50.354Z,1815
2018-07-21T08:06:51.857Z,485
2018-07-21T08:07:51.751Z,1930
2018-07-21T08:08:53.313Z,445
2018-07-21T08:09:51.597Z,1780
2018-07-21T08:10:52.366Z,920
2018-07-21T08:11:50.865Z,1290
2018-07-21T08:12:51.197Z,1755
2018-07-21T08:13:51.894Z,1585
2018-07-21T08:14:51.630Z,490
2018-07-21T08:15:52.180Z,450
2018-07-21T08:16:52.175Z,490
2018-07-21T08:17:52.938Z,1895
2018-07-21T08:18:52.658Z,445
2018-07-21T08:19:52.909Z,525
2018-07-21T08:20:53.123Z,480
2018-07-21T08:21:54.080Z,470
2018-07-21T08:22:53.605Z,470
2018-07-21T08:23:53.134Z,460
2018-07-21T08:24:53.463Z,445
2018-07-21T08:25:53.932Z,445
2018-07-21T08:26:53.867Z,485
2018-07-21T08:27:54.577Z,545
2018-07-21T08:28:55.223Z,465
2018-07-21T08:29:54.833Z,460
2018-07-21T08:30:54.845Z,465
2018-07-21T08:31:55.260Z,470
2018-07-21T08:32:54.756Z,475
2018-07-21T08:33:55.203Z,450
2018-07-21T08:34:55.943Z,455
2018-07-21T08:35:56.076Z,435
2018-07-21T08:36:56.165Z,460
2018-07-21T08:37:55.946Z,615
2018-07-21T08:38:56.096Z,455
2018-07-21T08:39:56.610Z,1810
2018-07-21T08:40:56.680Z,1775
2018-07-21T08:41:57.337Z,1685
2018-07-21T08:42:57.451Z,1515
2018-07-21T08:43:56.779Z,495
2018-07-21T08:44:58.479Z,850
2018-07-21T08:45:57.907Z,815
2018-07-21T08:46:58.017Z,1660
2018-07-21T08:47:58.118Z,1505
2018-07-21T08:48:58.200Z,935
2018-07-21T08:49:58.700Z,525
2018-07-21T08:50:56.848Z,1945
2018-07-21T08:51:57.316Z,1205
2018-07-21T08:52:57.608Z,535
2018-07-21T08:53:56.636Z,570
2018-07-21T08:54:56.878Z,385
2018-07-21T08:55:57.514Z,415
2018-07-21T08:56:57.513Z,520
2018-07-21T08:57:57.258Z,445
2018-07-21T08:58:57.926Z,630
2018-07-21T08:59:59.117Z,655
2018-07-21T09:00:58.569Z,660
2018-07-21T09:01:58.442Z,745
2018-07-21T09:02:58.717Z,690
2018-07-21T09:03:57.916Z,425
2018-07-21T09:04:59.118Z,655
2018-07-21T09:05:58.587Z,600
2018-07-21T09:07:00.101Z,720
2018-07-21T09:07:58.683Z,670
2018-07-21T09:08:58.054Z,695
2018-07-21T09:09:58.969Z,1005
2018-07-21T09:10:58.584Z,1125
2018-07-21T09:11:59.329Z,615
2018-07-21T09:13:00.000Z,970
2018-07-21T09:14:00.303Z,1065
2018-07-21T09:14:59.769Z,905
2018-07-21T09:15:59.645Z,1895
2018-07-21T09:16:58.487Z,860
2018-07-21T09:18:00.245Z,920
2018-07-21T09:19:03.876Z,755
2018-07-21T09:19:59.382Z,1070
2018-07-21T09:20:59.645Z,1110
2018-07-21T09:21:59.605Z,2200
2018-07-21T09:23:00.054Z,2695
2018-07-21T09:23:59.866Z,1715
2018-07-21T09:25:00.315Z,1170
2018-07-21T09:26:01.260Z,2460
2018-07-21T09:27:01.075Z,1450
2018-07-21T09:28:01.603Z,2205
2018-07-21T09:29:01.388Z,2475
2018-07-21T09:30:01.996Z,2410
2018-07-21T09:31:00.928Z,2140
2018-07-21T09:32:01.651Z,1530
2018-07-21T09:33:01.030Z,2565
2018-07-21T09:34:03.220Z,2280
2018-07-21T09:35:02.677Z,2390
2018-07-21T09:36:02.891Z,2370
2018-07-21T09:37:02.267Z,2110
2018-07-21T09:38:02.569Z,1980
2018-07-21T09:39:03.337Z,2175
2018-07-21T09:40:05.469Z,2035
2018-07-21T09:41:04.779Z,1950
2018-07-21T09:42:03.958Z,1980
2018-07-21T09:43:03.502Z,1040
2018-07-21T09:44:03.304Z,975
2018-07-21T09:45:03.236Z,1560
2018-07-21T09:46:03.193Z,1795
2018-07-21T09:47:03.024Z,1395
2018-07-21T09:48:04.334Z,1830
2018-07-21T09:49:04.177Z,1970
2018-07-21T09:50:04.172Z,1810
2018-07-21T09:51:04.504Z,1175
2018-07-21T09:52:04.594Z,1015
2018-07-21T09:53:04.688Z,770
2018-07-21T09:54:03.924Z,630
2018-07-21T09:55:04.441Z,780
2018-07-21T09:56:06.287Z,1135
2018-07-21T09:57:04.512Z,1310
2018-07-21T09:58:04.091Z,775
2018-07-21T09:59:04.773Z,1140
2018-07-21T10:01:04.548Z,810
2018-07-21T10:02:04.555Z,1305
2018-07-21T10:03:04.661Z,440
2018-07-21T10:04:05.354Z,605
2018-07-21T10:05:05.324Z,400
2018-07-21T10:06:04.926Z,415
2018-07-21T10:07:05.103Z,380
2018-07-21T10:08:04.740Z,365
2018-07-21T10:09:04.896Z,370
2018-07-21T10:10:04.657Z,370
2018-07-21T10:11:04.686Z,355
2018-07-21T10:12:05.214Z,365
2018-07-21T10:13:05.735Z,360
2018-07-21T10:14:07.036Z,355
2018-07-21T10:15:06.073Z,355
2018-07-21T10:16:05.589Z,350
2018-07-21T10:17:05.476Z,350
2018-07-21T10:18:06.119Z,360
2018-07-21T10:19:05.620Z,360
2018-07-21T10:20:06.333Z,360
2018-07-21T10:21:06.036Z,350
2018-07-21T10:22:07.440Z,335
2018-07-21T10:23:06.824Z,330
2018-07-21T10:24:07.097Z,325
2018-07-21T10:25:06.833Z,335
2018-07-21T10:26:07.960Z,325
2018-07-21T10:27:07.674Z,330
2018-07-21T10:28:07.529Z,330
2018-07-21T10:29:08.158Z,325
2018-07-21T10:30:07.933Z,320
2018-07-21T10:31:07.830Z,315
2018-07-21T10:32:07.655Z,305
2018-07-21T10:33:07.970Z,295
2018-07-21T10:34:07.590Z,280
2018-07-21T10:35:09.598Z,255
2018-07-21T10:36:09.599Z,230
2018-07-21T10:37:08.182Z,245
2018-07-21T10:38:08.341Z,255
2018-07-21T10:39:08.241Z,250
2018-07-21T10:40:09.009Z,255
2018-07-21T10:41:08.448Z,250
2018-07-21T10:42:08.497Z,270
2018-07-21T10:43:10.414Z,260
2018-07-21T10:44:08.393Z,255
2018-07-21T10:45:09.096Z,250
2018-07-21T10:46:08.526Z,380
2018-07-21T10:47:08.853Z,310
2018-07-21T10:48:09.370Z,275
2018-07-21T10:49:09.706Z,275
2018-07-21T10:50:10.855Z,250
2018-07-21T10:51:09.728Z,240
2018-07-21T10:52:10.197Z,210
2018-07-21T10:53:10.335Z,195
2018-07-21T10:54:10.937Z,220
2018-07-21T10:55:11.051Z,230
2018-07-21T10:56:11.708Z,215
2018-07-21T10:57:10.804Z,220
2018-07-21T10:58:11.043Z,210
2018-07-21T10:59:11.514Z,205
2018-07-21T11:00:29.437Z,215
2018-07-21T11:01:14.807Z,220
2018-07-21T11:02:21.289Z,215
2018-07-21T11:03:16.621Z,215
2018-07-21T11:04:16.985Z,215
2018-07-21T11:05:21.699Z,210
2018-07-21T11:06:16.856Z,205
2018-07-21T11:07:15.562Z,200
2018-07-21T11:08:19.052Z,195
2018-07-21T11:09:19.286Z,195
2018-07-21T11:10:19.228Z,190
2018-07-21T11:11:24.835Z,190
2018-07-21T11:12:18.538Z,190
2018-07-21T11:13:16.608Z,195
2018-07-21T11:14:21.367Z,195
2018-07-21T11:15:23.335Z,200
2018-07-21T11:16:19.493Z,205
2018-07-21T11:17:25.712Z,225
2018-07-21T11:18:29.037Z,230
2018-07-21T11:19:19.374Z,245
2018-07-21T11:20:19.858Z,270
2018-07-21T11:21:21.392Z,280
2018-07-21T11:22:19.641Z,285
2018-07-21T11:23:21.404Z,295
2018-07-21T11:24:19.247Z,295
2018-07-21T11:25:23.696Z,290
2018-07-21T11:26:20.021Z,285
2018-07-21T11:27:22.346Z,290
2018-07-21T11:28:19.870Z,285
2018-07-21T11:29:24.595Z,275
2018-07-21T11:30:20.720Z,270
2018-07-21T11:31:19.818Z,260
2018-07-21T11:32:21.376Z,250
2018-07-21T11:33:20.683Z,245
2018-07-21T11:34:19.893Z,225
2018-07-21T11:35:21.502Z,225
2018-07-21T11:36:22.380Z,220
2018-07-21T11:37:22.659Z,230
2018-07-21T11:38:20.854Z,225
2018-07-21T11:39:19.410Z,210
2018-07-21T11:40:22.380Z,195
2018-07-21T11:41:26.073Z,180
2018-07-21T11:42:21.965Z,175
2018-07-21T11:43:22.109Z,170
2018-07-21T11:44:25.471Z,165
2018-07-21T11:45:35.798Z,165
2018-07-21T11:46:26.683Z,160
2018-07-21T11:47:24.387Z,165
2018-07-21T11:48:24.114Z,160
2018-07-21T11:49:21.674Z,150
2018-07-21T11:50:22.916Z,150
2018-07-21T11:51:23.554Z,150
2018-07-21T11:52:21.521Z,145
2018-07-21T11:53:27.897Z,140
2018-07-21T11:54:27.485Z,135
2018-07-21T11:55:22.901Z,130
2018-07-21T11:56:24.245Z,130
2018-07-21T11:57:26.685Z,130
2018-07-21T11:58:22.697Z,120
2018-07-21T11:59:26.815Z,120
2018-07-21T12:00:20.826Z,125
2018-07-21T12:01:20.776Z,125
2018-07-21T12:02:21.093Z,130
2018-07-21T12:03:21.121Z,125
2018-07-21T12:04:21.240Z,135
2018-07-21T12:05:20.976Z,130
2018-07-21T12:06:21.156Z,135
2018-07-21T12:07:20.452Z,135
2018-07-21T12:08:21.298Z,140
2018-07-21T12:09:20.776Z,140
2018-07-21T12:10:21.644Z,145
2018-07-21T12:11:21.107Z,150
2018-07-21T12:12:21.153Z,150
2018-07-21T12:13:22.789Z,155
2018-07-21T12:14:21.654Z,175
2018-07-21T12:15:21.712Z,160
2018-07-21T12:16:21.998Z,160
2018-07-21T12:17:22.068Z,165
2018-07-21T12:18:22.315Z,165
2018-07-21T12:19:22.312Z,155
2018-07-21T12:20:23.402Z,155
2018-07-21T12:21:23.199Z,145
2018-07-21T12:22:23.048Z,145
2018-07-21T12:23:22.880Z,145
2018-07-21T12:24:23.392Z,145
2018-07-21T12:25:23.361Z,135
2018-07-21T12:26:23.994Z,130
2018-07-21T12:27:23.567Z,130
2018-07-21T12:28:24.379Z,120
2018-07-21T12:29:23.685Z,120
2018-07-21T12:30:23.968Z,115
2018-07-21T12:31:24.276Z,110
2018-07-21T12:32:24.797Z,110
2018-07-21T12:33:25.000Z,110
2018-07-21T12:34:25.362Z,110
2018-07-21T12:35:25.419Z,105
2018-07-21T12:36:25.177Z,105
2018-07-21T12:37:25.199Z,105
2018-07-21T12:38:25.048Z,105
2018-07-21T12:39:25.336Z,100
2018-07-21T12:40:25.900Z,100
2018-07-21T12:41:25.934Z,100
2018-07-21T12:42:25.965Z,95
2018-07-21T12:43:26.319Z,100
2018-07-21T12:44:25.769Z,95
2018-07-21T12:45:26.328Z,100
2018-07-21T12:46:27.452Z,95
2018-07-21T12:47:26.860Z,95
2018-07-21T12:48:27.084Z,90
2018-07-21T12:49:27.875Z,90
2018-07-21T12:50:26.983Z,85
2018-07-21T12:51:26.793Z,90
2018-07-21T12:52:26.878Z,90
2018-07-21T12:53:26.928Z,85
2018-07-21T12:54:26.743Z,85
2018-07-21T12:55:27.524Z,75
2018-07-21T12:56:27.681Z,80
2018-07-21T12:57:27.529Z,80
2018-07-21T12:58:27.216Z,80
2018-07-21T12:59:27.767Z,85
2018-07-21T13:00:27.591Z,90
2018-07-21T13:01:27.911Z,85
2018-07-21T13:02:27.690Z,85
2018-07-21T13:03:28.921Z,90
2018-07-21T13:04:28.793Z,90
2018-07-21T13:05:28.153Z,95
2018-07-21T13:06:29.238Z,95
2018-07-21T13:07:29.331Z,105
2018-07-21T13:08:29.003Z,105
2018-07-21T13:09:29.247Z,105
2018-07-21T13:10:28.921Z,105
2018-07-21T13:11:28.658Z,110
2018-07-21T13:12:29.288Z,105
2018-07-21T13:13:29.399Z,100
2018-07-21T13:14:29.310Z,100
2018-07-21T13:15:30.289Z,100
2018-07-21T13:16:29.980Z,95
2018-07-21T13:17:29.522Z,95
2018-07-21T13:18:29.432Z,105
2018-07-21T13:19:29.685Z,105
2018-07-21T13:20:30.463Z,95
2018-07-21T13:21:30.597Z,95
2018-07-21T13:22:30.982Z,90
2018-07-21T13:23:31.566Z,90
2018-07-21T13:24:31.765Z,90
2018-07-21T13:25:31.865Z,90
2018-07-21T13:26:31.645Z,95
2018-07-21T13:27:31.117Z,95
2018-07-21T13:28:31.960Z,100
2018-07-21T13:29:31.744Z,105
2018-07-21T13:30:31.767Z,105
2018-07-21T13:31:32.112Z,105
2018-07-21T13:32:31.704Z,110
2018-07-21T13:33:32.835Z,110
2018-07-21T13:34:32.506Z,110
2018-07-21T13:35:32.470Z,110
2018-07-21T13:36:33.229Z,110
2018-07-21T13:37:34.150Z,115
2018-07-21T13:38:33.925Z,115
2018-07-21T13:39:32.790Z,115
2018-07-21T13:40:33.657Z,115
2018-07-21T13:41:34.308Z,120
2018-07-21T13:42:35.598Z,115
2018-07-21T13:43:35.358Z,115
2018-07-21T13:44:35.200Z,115
2018-07-21T13:45:35.885Z,110
2018-07-21T13:46:35.145Z,110
2018-07-21T13:47:35.884Z,110
2018-07-21T13:48:35.038Z,115
2018-07-21T13:49:36.184Z,110
2018-07-21T13:50:35.773Z,115
2018-07-21T13:51:36.306Z,115
2018-07-21T13:52:35.080Z,110
2018-07-21T13:53:35.964Z,110
2018-07-21T13:54:36.180Z,110
2018-07-21T13:55:35.730Z,110
2018-07-21T13:56:34.914Z,105
2018-07-21T13:57:34.962Z,100
2018-07-21T13:58:35.510Z,100
2018-07-21T13:59:34.115Z,95
2018-07-21T14:00:34.419Z,100
2018-07-21T14:01:35.035Z,95
2018-07-21T14:02:34.747Z,95
2018-07-21T14:03:35.773Z,95
2018-07-21T14:04:35.044Z,95
2018-07-21T14:05:36.386Z,95
2018-07-21T14:06:36.270Z,95
2018-07-21T14:07:35.594Z,95
2018-07-21T14:08:36.565Z,95
2018-07-21T14:09:35.388Z,95
2018-07-21T14:10:35.968Z,100
2018-07-21T14:11:36.479Z,100
2018-07-21T14:12:36.556Z,100
2018-07-21T14:13:36.156Z,100
2018-07-21T14:14:35.276Z,100
2018-07-21T14:15:36.348Z,100
2018-07-21T14:16:35.807Z,100
2018-07-21T14:17:35.758Z,100
2018-07-21T14:18:35.807Z,95
2018-07-21T14:19:35.867Z,90
2018-07-21T14:20:35.791Z,90
2018-07-21T14:21:36.715Z,90
2018-07-21T14:22:36.107Z,90
2018-07-21T14:23:37.688Z,85
2018-07-21T14:24:36.571Z,85
2018-07-21T14:25:36.603Z,85
2018-07-21T14:26:36.506Z,80
2018-07-21T14:27:36.038Z,80
2018-07-21T14:28:36.500Z,85
2018-07-21T14:29:38.695Z,85
2018-07-21T14:30:38.399Z,85
2018-07-21T14:31:38.425Z,80
2018-07-21T14:32:37.660Z,80
2018-07-21T14:33:39.015Z,80
2018-07-21T14:34:38.059Z,75
2018-07-21T14:35:38.124Z,75
2018-07-21T14:36:39.498Z,75
2018-07-21T14:37:38.942Z,75
2018-07-21T14:38:38.735Z,70
2018-07-21T14:39:37.922Z,75
2018-07-21T14:40:36.964Z,70
2018-07-21T14:41:38.114Z,70
2018-07-21T14:42:36.974Z,70
2018-07-21T14:43:37.859Z,70
2018-07-21T14:44:37.538Z,70
2018-07-21T14:45:37.134Z,70
2018-07-21T14:46:37.430Z,70
2018-07-21T14:47:38.127Z,70
2018-07-21T14:48:38.211Z,75
2018-07-21T14:49:38.421Z,75
2018-07-21T14:50:38.231Z,75
2018-07-21T14:51:38.229Z,75
2018-07-21T14:52:38.059Z,75
2018-07-21T14:53:38.509Z,75
2018-07-21T14:54:39.552Z,75
2018-07-21T14:55:38.736Z,75
2018-07-21T14:56:39.530Z,75
2018-07-21T14:57:38.984Z,75
2018-07-21T14:58:39.624Z,80
2018-07-21T14:59:39.364Z,75
2018-07-21T15:00:39.242Z,75
2018-07-21T15:01:40.118Z,75
2018-07-21T15:02:40.182Z,75
2018-07-21T15:03:39.953Z,80
2018-07-21T15:04:39.902Z,75
2018-07-21T15:05:40.765Z,75
2018-07-21T15:06:39.678Z,75
2018-07-21T15:07:39.839Z,75
2018-07-21T15:08:40.421Z,75
2018-07-21T15:09:40.059Z,75
2018-07-21T15:10:40.206Z,75
2018-07-21T15:11:40.697Z,75
2018-07-21T15:12:40.017Z,75
2018-07-21T15:13:40.128Z,75
2018-07-21T15:14:40.853Z,75
2018-07-21T15:15:41.025Z,75
2018-07-21T15:16:41.058Z,75
2018-07-21T15:17:41.367Z,75
2018-07-21T15:18:40.994Z,75
2018-07-21T15:19:41.284Z,70
2018-07-21T15:20:41.077Z,70
2018-07-21T15:21:41.120Z,70
2018-07-21T15:22:41.438Z,70
2018-07-21T15:23:41.638Z,70
2018-07-21T15:24:41.551Z,70
2018-07-21T15:25:41.087Z,70
2018-07-21T15:26:41.680Z,70
2018-07-21T15:27:41.507Z,70
2018-07-21T15:28:41.687Z,70
2018-07-21T15:29:42.441Z,70
2018-07-21T15:30:42.196Z,70
2018-07-21T15:31:41.681Z,70
2018-07-21T15:32:41.614Z,70
2018-07-21T15:33:41.823Z,70
2018-07-21T15:34:42.097Z,65
2018-07-21T15:35:42.396Z,70
2018-07-21T15:36:41.924Z,70
2018-07-21T15:37:41.923Z,70
2018-07-21T15:38:42.465Z,65
2018-07-21T15:39:42.261Z,65
2018-07-21T15:40:42.504Z,65
2018-07-21T15:41:42.701Z,65
2018-07-21T15:42:43.672Z,65
2018-07-21T15:43:43.326Z,65
2018-07-21T15:44:43.581Z,70
2018-07-21T15:45:43.271Z,70
2018-07-21T15:46:43.081Z,65
2018-07-21T15:47:43.720Z,60
2018-07-21T15:48:43.877Z,60
2018-07-21T15:49:43.670Z,60
2018-07-21T15:50:44.145Z,60
2018-07-21T15:51:43.825Z,60
2018-07-21T15:52:44.920Z,55
2018-07-21T15:53:44.477Z,60
2018-07-21T15:54:44.821Z,60
2018-07-21T15:55:44.663Z,55
2018-07-21T15:56:44.788Z,60
2018-07-21T15:57:44.789Z,55
2018-07-21T15:58:45.422Z,55
2018-07-21T15:59:45.833Z,55
2018-07-21T16:00:46.688Z,55
2018-07-21T16:01:47.184Z,55
2018-07-21T16:02:47.270Z,55
2018-07-21T16:03:46.346Z,55
2018-07-21T16:04:46.936Z,60
2018-07-21T16:05:47.143Z,55
2018-07-21T16:06:46.951Z,60
2018-07-21T16:07:46.739Z,55
2018-07-21T16:08:48.081Z,55
2018-07-21T16:09:47.363Z,60
2018-07-21T16:10:47.429Z,60
2018-07-21T16:11:47.422Z,60
2018-07-21T16:12:47.863Z,55
2018-07-21T16:13:47.619Z,55
2018-07-21T16:14:48.351Z,55
2018-07-21T16:15:47.522Z,55
2018-07-21T16:16:47.586Z,55
2018-07-21T16:17:47.652Z,55
2018-07-21T16:18:47.921Z,55
2018-07-21T16:19:48.178Z,55
2018-07-21T16:20:48.551Z,55
2018-07-21T16:21:48.032Z,55
2018-07-21T16:22:47.994Z,60
2018-07-21T16:23:48.840Z,60
2018-07-21T16:24:49.037Z,60
2018-07-21T16:25:48.650Z,55
2018-07-21T16:26:48.774Z,55
2018-07-21T16:27:49.153Z,60
2018-07-21T16:28:49.035Z,60
2018-07-21T16:29:48.984Z,60
2018-07-21T16:30:49.336Z,55
2018-07-21T16:31:49.855Z,55
2018-07-21T16:32:48.679Z,55
2018-07-21T16:33:49.303Z,55
2018-07-21T16:34:49.986Z,55
2018-07-21T16:35:50.664Z,55
2018-07-21T16:36:51.293Z,50
2018-07-21T16:37:50.559Z,50
2018-07-21T16:38:51.273Z,50
2018-07-21T16:39:53.156Z,50
2018-07-21T16:40:52.332Z,50
2018-07-21T16:41:52.515Z,50
2018-07-21T16:42:52.083Z,50
2018-07-21T16:43:54.268Z,50
2018-07-21T16:44:52.666Z,45
2018-07-21T16:45:52.347Z,45
2018-07-21T16:46:52.081Z,45
2018-07-21T16:47:52.039Z,45
2018-07-21T16:48:52.465Z,45
2018-07-21T16:49:53.292Z,45
2018-07-21T16:50:53.587Z,45
2018-07-21T16:51:53.946Z,45
2018-07-21T16:52:53.454Z,45
2018-07-21T16:53:53.558Z,45
2018-07-21T16:54:52.192Z,45
2018-07-21T16:55:53.165Z,45
2018-07-21T16:56:53.605Z,45
2018-07-21T16:57:51.875Z,45
2018-07-21T16:58:51.977Z,45
2018-07-21T16:59:51.736Z,45
2018-07-21T17:00:52.096Z,45
2018-07-21T17:01:52.217Z,45
2018-07-21T17:02:52.576Z,45
2018-07-21T17:03:51.686Z,50
2018-07-21T17:04:51.952Z,50
2018-07-21T17:05:52.083Z,50
2018-07-21T17:06:52.825Z,50
2018-07-21T17:07:53.007Z,50
2018-07-21T17:08:52.582Z,50
2018-07-21T17:09:52.370Z,50
2018-07-21T17:10:52.893Z,50
2018-07-21T17:11:53.255Z,50
2018-07-21T17:12:52.941Z,50
2018-07-21T17:13:53.758Z,50
2018-07-21T17:14:53.519Z,45
2018-07-21T17:15:53.266Z,45
2018-07-21T17:16:53.996Z,45
2018-07-21T17:17:54.642Z,45
2018-07-21T17:18:53.939Z,45
2018-07-21T17:19:53.895Z,45
2018-07-21T17:20:54.078Z,40
2018-07-21T17:21:54.814Z,40
2018-07-21T17:22:54.825Z,40
2018-07-21T17:23:55.365Z,40
2018-07-21T17:24:54.566Z,40
2018-07-21T17:25:55.354Z,40
2018-07-21T17:26:55.273Z,40
2018-07-21T17:27:55.518Z,40
2018-07-21T17:28:55.911Z,40
2018-07-21T17:29:56.390Z,40
2018-07-21T17:30:55.598Z,35
2018-07-21T17:31:55.940Z,35
2018-07-21T17:32:55.645Z,35
2018-07-21T17:33:56.372Z,35
2018-07-21T17:34:56.837Z,35
2018-07-21T17:35:57.246Z,35
2018-07-21T17:36:56.602Z,35
2018-07-21T17:37:56.539Z,35
2018-07-21T17:38:57.408Z,35
2018-07-21T17:39:56.895Z,35
2018-07-21T17:40:57.448Z,35
2018-07-21T17:41:57.657Z,35
2018-07-21T17:42:58.294Z,35
2018-07-21T17:43:58.526Z,35
2018-07-21T17:44:58.710Z,30
2018-07-21T17:45:58.323Z,30
2018-07-21T17:46:58.070Z,30
2018-07-21T17:47:58.626Z,30
2018-07-21T17:48:58.856Z,30
2018-07-21T17:49:59.579Z,30
2018-07-21T17:50:59.808Z,30
2018-07-21T17:51:59.369Z,30
2018-07-21T17:52:59.772Z,30
2018-07-21T17:53:59.779Z,35
2018-07-21T17:55:00.261Z,35
2018-07-21T17:56:00.805Z,35
2018-07-21T17:56:59.958Z,35
2018-07-21T17:58:00.397Z,35
2018-07-21T17:59:00.555Z,35
2018-07-21T18:00:00.718Z,35
2018-07-21T18:01:11.049Z,35
2018-07-21T18:02:05.195Z,35
2018-07-21T18:03:05.836Z,35
2018-07-21T18:04:04.082Z,35
2018-07-21T18:05:07.481Z,35
2018-07-21T18:06:04.593Z,30
2018-07-21T18:07:04.196Z,30
2018-07-21T18:08:05.381Z,30
2018-07-21T18:09:08.796Z,30
2018-07-21T18:10:05.013Z,30
2018-07-21T18:11:08.993Z,30
2018-07-21T18:12:09.420Z,30
2018-07-21T18:13:05.354Z,25
2018-07-21T18:14:07.819Z,25
2018-07-21T18:15:11.107Z,25
2018-07-21T18:16:11.016Z,25
2018-07-21T18:17:20.479Z,25
2018-07-21T18:18:52.786Z,25
2018-07-21T18:19:48.088Z,25
2018-07-21T18:20:51.353Z,25
2018-07-21T18:21:49.195Z,25
2018-07-21T18:22:51.662Z,25
2018-07-21T18:23:48.698Z,20
2018-07-21T18:24:51.260Z,20
2018-07-21T18:25:49.165Z,20
2018-07-21T18:26:48.095Z,20
2018-07-21T18:27:48.216Z,20
